< < Back
Terminal Aerodrome Forecast


Current Version              Previous Versions:   1  2  3  4  5  6  7  8  9  

Terminal Aerodrome Forecast

357
FTUS42 KFFC 211138
TAFFTY
TAF
KFTY 211138Z 2112/2212 04005KT 6SM BR OVC009
      TEMPO 2112/2115 OVC004
     FM211600 07005KT 4SM BR OVC007
     FM211800 08007KT P6SM OVC012
     FM220400 09005KT 6SM BR OVC007
     FM220900 07008KT 4SM BR OVC004=

Latest METAR

807
SAUS70 KWBC 220200 RRN
MTRFTY
METAR KFTY 220153Z 07005KT 10SM SCT018 OVC025 10/06 A3010 RMK AO2 SLP192
T01000061


USA.gov is the U.S. government's official web portal to all federal, state and local government web resources and services.